地図

経路データ

SID SEASON NUMBER BASIN SUBBASIN NAME ISO_TIME NATURE LAT LON WMO_WIND WMO_PRES WMO_AGENCY TRACK_TYPE DIST2LAND LANDFALL IFLAG USA_AGENCY USA_ATCF_ID USA_LAT USA_LON USA_RECORD USA_STATUS USA_WIND USA_PRES USA_SSHS USA_R34_NE USA_R34_SE USA_R34_SW USA_R34_NW USA_R50_NE USA_R50_SE USA_R50_SW USA_R50_NW USA_R64_NE USA_R64_SE USA_R64_SW USA_R64_NW USA_POCI USA_ROCI USA_RMW USA_EYE TOKYO_LAT TOKYO_LON TOKYO_GRADE TOKYO_WIND TOKYO_PRES TOKYO_R50_DIR TOKYO_R50_LONG TOKYO_R50_SHORT TOKYO_R30_DIR TOKYO_R30_LONG TOKYO_R30_SHORT TOKYO_LAND CMA_LAT CMA_LON CMA_CAT CMA_WIND CMA_PRES HKO_LAT HKO_LON HKO_CAT HKO_WIND HKO_PRES NEWDELHI_LAT NEWDELHI_LON NEWDELHI_GRADE NEWDELHI_WIND NEWDELHI_PRES NEWDELHI_CI NEWDELHI_DP NEWDELHI_POCI REUNION_LAT REUNION_LON REUNION_TYPE REUNION_WIND REUNION_PRES REUNION_TNUM REUNION_CI REUNION_RMW REUNION_R34_NE REUNION_R34_SE REUNION_R34_SW REUNION_R34_NW REUNION_R50_NE REUNION_R50_SE REUNION_R50_SW REUNION_R50_NW REUNION_R64_NE REUNION_R64_SE REUNION_R64_SW REUNION_R64_NW BOM_LAT BOM_LON BOM_TYPE BOM_WIND BOM_PRES BOM_TNUM BOM_CI BOM_RMW BOM_R34_NE BOM_R34_SE BOM_R34_SW BOM_R34_NW BOM_R50_NE BOM_R50_SE BOM_R50_SW BOM_R50_NW BOM_R64_NE BOM_R64_SE BOM_R64_SW BOM_R64_NW BOM_ROCI BOM_POCI BOM_EYE BOM_POS_METHOD BOM_PRES_METHOD NADI_LAT NADI_LON NADI_CAT NADI_WIND NADI_PRES WELLINGTON_LAT WELLINGTON_LON WELLINGTON_WIND WELLINGTON_PRES DS824_LAT DS824_LON DS824_STAGE DS824_WIND DS824_PRES TD9636_LAT TD9636_LON TD9636_STAGE TD9636_WIND TD9636_PRES TD9635_LAT TD9635_LON TD9635_WIND TD9635_PRES TD9635_ROCI NEUMANN_LAT NEUMANN_LON NEUMANN_CLASS NEUMANN_WIND NEUMANN_PRES MLC_LAT MLC_LON MLC_CLASS MLC_WIND MLC_PRES USA_GUST BOM_GUST BOM_GUST_PER REUNION_GUST REUNION_GUST_PER USA_SEAHGT USA_SEARAD_NE USA_SEARAD_SE USA_SEARAD_SW USA_SEARAD_NW STORM_SPEED STORM_DIR
1982304S10171 1983 97 SP MM JOTI 1982-10-31 00:00:00 NR -9.70000 171.300 30 997 wellington main 748 748 ________O_O___ -1 -9.50000 172.000 30 997 -9.90000 170.600 1 1 238
1982304S10171 1983 97 SP MM JOTI 1982-10-31 03:00:00 NR -9.72965 171.253 main 748 733 ________P_P___ -1 -9.57493 171.883 30 997 -9.88437 170.623 1 1 242
1982304S10171 1983 97 SP MM JOTI 1982-10-31 06:00:00 NR -9.75244 171.205 main 733 733 ________P_P___ -1 -9.64988 171.752 30 997 -9.85499 170.657 1 1 252
1982304S10171 1983 97 SP MM JOTI 1982-10-31 09:00:00 NR -9.76151 171.154 main 733 726 ________P_P___ -1 -9.72490 171.596 30 997 -9.79812 170.713 1 1 250
1982304S10171 1983 97 SP MM JOTI 1982-10-31 12:00:00 TS -9.78000 171.120 30 997 wellington main 726 720 O_______O_O_O_ jtwc_sh SH021983 -9.90000 171.200 30 -1 -9.80000 171.400 30 997 -9.70000 170.800 1 -9.90000 171.200 TC 30 1 270
1982304S10171 1983 97 SP MM JOTI 1982-10-31 15:00:00 TS -9.76099 171.019 main 720 720 P_______P_P_P_ SH021983 -9.85505 170.977 32 -1 -9.87358 171.160 30 997 -9.55436 170.921 1 -9.85505 170.977 TC 32 2 285
1982304S10171 1983 97 SP MM JOTI 1982-10-31 18:00:00 TS -9.72075 170.899 main 722 716 O_______P_P_O_ jtwc_sh SH021983 -9.80000 170.800 35 0 -9.93770 170.905 30 997 -9.38494 171.040 1 -9.80000 170.800 TC 35 2 293
1982304S10171 1983 97 SP MM JOTI 1982-10-31 21:00:00 TS -9.66899 170.799 main 716 716 P_______P_P_P_ SH021983 -9.73498 170.705 37 0 -9.98295 170.673 30 997 -9.22304 171.114 1 -9.73498 170.705 TC 37 2 303
1982304S10171 1983 97 SP MM JOTI 1982-11-01 00:00:00 TS -9.62500 170.750 30 997 wellington main 726 720 O_______O_O_O_ jtwc_sh SH021983 -9.70000 170.700 40 0 -10.0000 170.500 30 997 -9.10000 171.100 1 -9.70000 170.700 TC 40 1 304
1982304S10171 1983 97 SP MM JOTI 1982-11-01 03:00:00 TS -9.61020 170.708 main 720 720 P_______P_P_P_ SH021983 -9.73500 170.770 40 0 -9.96239 170.419 30 997 -9.00840 170.874 1 -9.73500 170.770 TC 40 1 279
1982304S10171 1983 97 SP MM JOTI 1982-11-01 06:00:00 TS -9.61632 170.693 main 720 720 O_______P_P_O_ jtwc_sh SH021983 -9.80000 170.900 40 0 -9.89988 170.402 30 997 -8.96538 170.570 1 -9.80000 170.900 TC 40 0 0
1982304S10171 1983 97 SP MM JOTI 1982-11-01 09:00:00 TS -9.62802 170.708 main 720 710 P_______P_P_P_ SH021983 -9.84252 171.057 40 0 -9.83743 170.435 30 997 -8.98961 170.281 1 -9.84252 171.057 TC 40 1 138
1982304S10171 1983 97 SP MM JOTI 1982-11-01 12:00:00 TS -9.67500 170.750 30 997 wellington main 716 707 O_______O_O_O_ jtwc_sh SH021983 -9.90000 171.200 40 0 -9.80000 170.500 30 997 -9.10000 170.100 1 -9.90000 171.200 TC 40 2 134
1982304S10171 1983 97 SP MM JOTI 1982-11-01 15:00:00 TS -9.75627 170.840 main 707 704 P_______P_P_P_ SH021983 -9.97749 171.265 40 0 -9.76847 170.624 31 996 -9.30164 170.205 1 -9.97749 171.265 TC 40 3 138
1982304S10171 1983 97 SP MM JOTI 1982-11-01 18:00:00 TS -9.89005 170.947 main 704 693 O_______P_P_O_ jtwc_sh SH021983 -10.1000 171.300 40 0 -9.77252 170.767 32 996 -9.58768 170.419 1 -10.1000 171.300 TC 40 4 146
1982304S10171 1983 97 SP MM JOTI 1982-11-01 21:00:00 TS -10.0775 171.060 main 699 682 P_______P_P_P_ SH021983 -10.2700 171.357 42 0 -9.84029 170.877 33 995 -9.92983 170.649 1 -10.2700 171.357 TC 42 5 158
1982304S10171 1983 97 SP MM JOTI 1982-11-02 00:00:00 TS -10.3250 171.125 35 995 wellington main 682 656 O_______O_O_O_ jtwc_sh SH021983 -10.5000 171.400 45 0 -10.0000 170.900 35 995 -10.3000 170.800 1 -10.5000 171.400 TC 45 6 176
1982304S10171 1983 97 SP MM JOTI 1982-11-02 03:00:00 TS -10.6256 171.095 main 656 615 P_______P_P_P_ SH021983 -10.7775 171.430 45 0 -10.2939 170.761 36 993 -10.6534 170.760 1 -10.7775 171.430 TC 45 7 191
1982304S10171 1983 97 SP MM JOTI 1982-11-02 06:00:00 TS -10.9757 170.990 main 615 576 O_______P_P_O_ jtwc_sh SH021983 -11.1000 171.400 45 0 -10.6752 170.533 37 992 -11.0274 170.628 1 -11.1000 171.400 TC 45 8 200
1982304S10171 1983 97 SP MM JOTI 1982-11-02 09:00:00 TS -11.3591 170.825 main 568 529 P_______P_P_P_ SH021983 -11.4649 171.303 47 0 -11.0939 170.264 38 991 -11.4128 170.432 1 -11.4649 171.303 TC 47 8 207
1982304S10171 1983 97 SP MM JOTI 1982-11-02 12:00:00 TS -11.7250 170.600 40 990 wellington main 529 490 O_______O_O_O_ jtwc_sh SH021983 -11.8000 171.100 50 0 -11.5000 170.000 40 990 -11.8000 170.200 1 -11.8000 171.100 TC 50 8 216
1982304S10171 1983 97 SP MM JOTI 1982-11-02 15:00:00 TS -12.0195 170.339 main 482 443 P_______P_P_P_ SH021983 -12.0225 170.780 50 0 -11.8254 169.827 42 988 -12.2076 169.971 1 -12.0225 170.780 TC 50 8 224
1982304S10171 1983 97 SP MM JOTI 1982-11-02 18:00:00 TS -12.2850 170.045 main 435 404 O_______P_P_O_ jtwc_sh SH021983 -12.2000 170.400 50 0 -12.1297 169.665 45 987 -12.6101 169.715 1 -12.2000 170.400 TC 50 8 227
1982304S10171 1983 97 SP MM JOTI 1982-11-02 21:00:00 TS -12.5542 169.762 main 396 357 P_______P_P_P_ SH021983 -12.4075 170.050 52 0 -12.4192 169.495 47 986 -12.9826 169.452 1 -12.4075 170.050 TC 52 8 227
1982304S10171 1983 97 SP MM JOTI 1982-11-03 00:00:00 TS -12.8000 169.475 50 985 wellington main 357 318 O_______O_O_O_ jtwc_sh SH021983 -12.6000 169.700 55 0 -12.7000 169.300 50 985 -13.3000 169.200 2 -12.6000 169.700 TC 55 7 231
1982304S10171 1983 97 SP MM JOTI 1982-11-03 03:00:00 TS -13.0135 169.176 main 318 279 P_______P_P_P_ SH021983 -12.7575 169.342 55 0 -12.9986 169.042 51 983 -13.5405 168.977 2 -12.7575 169.342 TC 55 7 235
1982304S10171 1983 97 SP MM JOTI 1982-11-03 06:00:00 TS -13.2031 168.882 main 279 241 O_______P_P_O_ jtwc_sh SH021983 -12.9000 169.000 55 0 -13.2877 168.758 52 982 -13.7249 168.770 2 -12.9000 169.000 TC 55 7 237
1982304S10171 1983 97 SP MM JOTI 1982-11-03 09:00:00 TS -13.3749 168.604 main 241 218 P_______P_P_P_ SH021983 -13.0350 168.685 57 0 -13.5579 168.470 53 981 -13.8718 168.577 2 -13.0350 168.685 TC 57 6 236
1982304S10171 1983 97 SP MM JOTI 1982-11-03 12:00:00 TS -13.5500 168.350 55 980 wellington main 211 181 O_______O_O_O_ jtwc_sh SH021983 -13.2000 168.400 60 0 -13.8000 168.200 55 980 -14.0000 168.400 2 -13.2000 168.400 TC 60 6 230
1982304S10171 1983 97 SP MM JOTI 1982-11-03 15:00:00 TS -13.7562 168.133 main 172 141 P_______P_P_P_ SH021983 -13.4350 168.142 60 0 -14.0157 167.986 56 978 -14.1392 168.260 2 -13.4350 168.142 TC 62 6 224
1982304S10171 1983 97 SP MM JOTI 1982-11-03 18:00:00 TS -13.9667 167.930 main 141 110 O_______P_P_O_ jtwc_sh SH021983 -13.7000 167.900 60 0 -14.2022 167.792 57 977 -14.2647 168.130 2 -13.7000 167.900 TC 65 6 224
1982304S10171 1983 97 SP MM JOTI 1982-11-03 21:00:00 TS -14.1651 167.722 main 110 89 P_______P_P_P_ SH021983 -13.9575 167.650 62 0 -14.3626 167.602 58 976 -14.3829 167.985 2 -13.9575 167.650 TC 67 6 227
1982304S10171 1983 97 SP MM JOTI 1982-11-04 00:00:00 TS -14.3500 167.500 60 975 wellington main 89 59 O_______O_O_O_ jtwc_sh SH021983 -14.2000 167.400 65 1 -14.5000 167.400 60 975 -14.5000 167.800 2 -14.2000 167.400 TC 70 6 232
1982304S10171 1983 97 SP MM JOTI 1982-11-04 03:00:00 TS -14.5252 167.252 main 59 33 P_______P_P_P_ SH021983 -14.4150 167.142 65 1 -14.6336 167.185 60 975 -14.6373 167.539 2 -14.4150 167.142 TC 67 6 236
1982304S10171 1983 97 SP MM JOTI 1982-11-04 06:00:00 TS -14.6793 166.998 main 33 10 O_______P_P_O_ jtwc_sh SH021983 -14.6000 166.900 65 1 -14.7447 166.952 60 975 -14.7727 167.238 2 -14.6000 166.900 TC 65 976 6 239
1982304S10171 1983 97 SP MM JOTI 1982-11-04 09:00:00 TS -14.8150 166.749 main 0 0 P_______P_P_P_ SH021983 -14.7650 166.692 65 1 -14.8335 166.694 60 975 -14.8967 166.917 2 -14.7650 166.692 TC 67 5 243
1982304S10171 1983 97 SP MM JOTI 1982-11-04 12:00:00 TS -14.9250 166.500 60 975 wellington main 10 10 O_______O_O_O_ jtwc_sh SH021983 -14.9000 166.500 65 1 -14.9000 166.400 60 975 -15.0000 166.600 2 -14.9000 166.500 TC 70 6 249
1982304S10171 1983 97 SP MM JOTI 1982-11-04 15:00:00 TS -15.0105 166.218 main 39 39 P_______P_P_P_ SH021983 -15.0075 166.292 65 1 -14.9553 165.992 58 976 -15.0716 166.293 2 -15.0075 166.292 TC 67 6 254
1982304S10171 1983 97 SP MM JOTI 1982-11-04 18:00:00 TS -15.0777 165.939 main 72 72 O_______P_P_O_ jtwc_sh SH021983 -15.1000 166.100 65 1 -14.9883 165.560 57 977 -15.1226 165.997 2 -15.1000 166.100 TC 65 5 255
1982304S10171 1983 97 SP MM JOTI 1982-11-04 21:00:00 TS -15.1448 165.700 main 92 92 P_______P_P_P_ SH021983 -15.2075 165.950 62 0 -15.0021 165.173 56 978 -15.1622 165.728 2 -15.2075 165.950 TC 62 4 254
1982304S10171 1983 97 SP MM JOTI 1982-11-05 00:00:00 TS -15.2000 165.500 55 980 wellington main 116 116 O_______O_O_O_ jtwc_sh SH021983 -15.3000 165.800 60 0 -15.0000 164.900 55 980 -15.2000 165.500 2 -15.3000 165.800 TC 60 3 257
1982304S10171 1983 97 SP MM JOTI 1982-11-05 03:00:00 TS -15.2252 165.353 main 126 126 P_______P_P_P_ SH021983 -15.3575 165.607 60 0 -14.9525 164.848 53 981 -15.2335 165.348 2 -15.3575 165.607 TC 60 3 261
1982304S10171 1983 97 SP MM JOTI 1982-11-05 06:00:00 TS -15.2417 165.236 main 146 146 O_______P_P_O_ jtwc_sh SH021983 -15.4000 165.400 60 0 -14.8972 164.910 52 982 -15.2696 165.235 2 -15.4000 165.400 TC 60 2 258
1982304S10171 1983 97 SP MM JOTI 1982-11-05 09:00:00 TS -15.2723 165.129 main 160 160 P_______P_P_P_ SH021983 -15.4500 165.185 60 0 -14.8683 165.017 51 983 -15.3210 165.129 2 -15.4500 165.185 TC 60 2 248
1982304S10171 1983 97 SP MM JOTI 1982-11-05 12:00:00 TS -15.3250 165.025 50 985 wellington main 170 170 O_______O_O_O_ jtwc_sh SH021983 -15.5000 165.000 60 0 -14.9000 165.100 50 985 -15.4000 165.000 2 -15.5000 165.000 TC 60 3 237
1982304S10171 1983 97 SP MM JOTI 1982-11-05 15:00:00 TS -15.4118 164.902 main 182 182 P_______P_P_P_ SH021983 -15.5350 164.885 60 0 -15.0556 165.061 50 985 -15.5215 164.776 2 -15.5350 164.885 TC 60 3 228
1982304S10171 1983 97 SP MM JOTI 1982-11-05 18:00:00 TS -15.5351 164.779 main 193 193 O_______P_P_O_ jtwc_sh SH021983 -15.6000 164.800 60 0 -15.2700 164.988 50 985 -15.6703 164.528 2 -15.6000 164.800 TC 60 4 221
1982304S10171 1983 97 SP MM JOTI 1982-11-05 21:00:00 TS -15.7008 164.643 main 216 216 P_______P_P_P_ SH021983 -15.7350 164.693 57 0 -15.4994 164.895 50 985 -15.8340 164.291 2 -15.7350 164.693 TC 57 4 216
1982304S10171 1983 97 SP MM JOTI 1982-11-06 00:00:00 TS -15.8750 164.525 50 985 wellington main 231 231 O_______O_O_O_ jtwc_sh SH021983 -15.9000 164.600 55 0 -15.7000 164.800 50 985 -16.0000 164.100 2 -15.9000 164.600 TC 55 4 210
1982304S10171 1983 97 SP MM JOTI 1982-11-06 03:00:00 TS -16.0043 164.457 main 234 234 P_______P_P_P_ SH021983 -16.0425 164.550 55 0 -15.7947 164.733 48 985 -16.1377 163.995 2 -16.0425 164.550 TC 55 3 205
1982304S10171 1983 97 SP MM JOTI 1982-11-06 06:00:00 TS -16.1337 164.401 main 248 248 O_______P_P_O_ jtwc_sh SH021983 -16.2000 164.500 55 0 -15.8574 164.665 47 986 -16.2773 163.940 2 -16.2000 164.500 TC 55 3 204
1982304S10171 1983 97 SP MM JOTI 1982-11-06 09:00:00 TS -16.2862 164.330 main 265 265 P_______P_P_P_ SH021983 -16.4000 164.408 52 0 -15.9165 164.589 46 986 -16.4283 163.914 2 -16.4000 164.408 TC 52 4 204
1982304S10171 1983 97 SP MM JOTI 1982-11-06 12:00:00 TS -16.4500 164.250 45 987 wellington main 270 270 O_______O_O_O_ jtwc_sh SH021983 -16.6000 164.300 50 0 -16.0000 164.500 45 987 -16.6000 163.900 1 -16.6000 164.300 TC 50 4 206
1982304S10171 1983 97 SP MM JOTI 1982-11-06 15:00:00 TS -16.6070 164.169 main 289 289 P_______P_P_P_ SH021983 -16.7500 164.200 50 0 -16.1291 164.393 43 987 -16.7988 163.882 1 -16.7500 164.200 TC 50 4 205
1982304S10171 1983 97 SP MM JOTI 1982-11-06 18:00:00 TS -16.7966 164.085 main 309 309 O_______P_P_O_ jtwc_sh SH021983 -16.9000 164.100 50 0 -16.2976 164.270 42 988 -17.0201 163.858 1 -16.9000 164.100 TC 50 5 201
1982304S10171 1983 97 SP MM JOTI 1982-11-06 21:00:00 TS -17.0248 164.000 main 330 330 P_______P_P_P_ SH021983 -17.1000 164.007 47 0 -16.4923 164.138 41 989 -17.2563 163.830 1 -17.1000 164.007 TC 47 5 201
1982304S10171 1983 97 SP MM JOTI 1982-11-07 00:00:00 TS -17.2600 163.900 40 990 wellington main 325 303 O_______O_O_O_ jtwc_sh SH021983 -17.3000 163.900 45 0 -16.7000 164.000 40 990 -17.5000 163.800 1 -17.3000 163.900 TC 45 5 207
1982304S10171 1983 97 SP MM JOTI 1982-11-07 03:00:00 TS -17.4650 163.765 main 303 293 P___________P_ SH021983 -17.4650 163.765 42 0 1 -17.4650 163.765 TC 42 4 220
1982304S10171 1983 97 SP MM JOTI 1982-11-07 06:00:00 TS -17.6000 163.600 main 295 286 O___________O_ jtwc_sh SH021983 -17.6000 163.600 40 0 1 -17.6000 163.600 TC 40 4 234
1982304S10171 1983 97 SP MM JOTI 1982-11-07 09:00:00 TS -17.7075 163.415 main 289 281 P___________P_ SH021983 -17.7075 163.415 37 0 1 -17.7075 163.415 TC 37 4 242
1982304S10171 1983 97 SP MM JOTI 1982-11-07 12:00:00 TS -17.8000 163.200 main 284 277 O___________O_ jtwc_sh SH021983 -17.8000 163.200 35 0 -17.8000 163.200 TC 35 5 245
1982304S10171 1983 97 SP MM JOTI 1982-11-07 15:00:00 TS -17.9074 162.973 main 282 276 P___________P_ SH021983 -17.9074 162.973 32 -1 -17.9074 162.973 TC 32 5 247
1982304S10171 1983 97 SP MM JOTI 1982-11-07 18:00:00 TS -18.0000 162.700 main 286 286 O___________O_ jtwc_sh SH021983 -18.0000 162.700 30 -1 -18.0000 162.700 TC 30 6 255
1982304S10171 1983 97 SP MM JOTI 1982-11-07 21:00:00 TS -18.0602 162.368 main 295 295 P___________P_ SH021983 -18.0602 162.368 30 -1 -18.0602 162.368 TC 30 7 261
1982304S10171 1983 97 SP MM JOTI 1982-11-08 00:00:00 TS -18.1000 162.000 main 322 O___________O_ jtwc_sh SH021983 -18.1000 162.000 30 -1 -18.1000 162.000 TC 30 7 263

デジタル台風データ・検索

IBTrACS Databaseについて

本データベースは、米国NOAAが公開する1842年以降の世界の熱帯低気圧のベストトラックデータアーカイブInternational Best Track Archive for Climate Stewardship (IBTrACS)を、ウェブで閲覧しやすい形式に変換したものです。

最終更新日:2021-12-06